Time;durP1;ratioP1;P1;durP2;ratioP2;P2;SDS_P1;SDS_P2;PMS_P1;PMS_P2;Temp;Humidity;BMP_temperature;BMP_pressure;BME280_temperature;BME280_humidity;BME280_pressure;Samples;Min_cycle;Max_cycle;Signal;HPM_P1;HPM_P2
2022/04/07 00:00:44;;;;;;;17.98;4.78;;;;;;;;;;5070559;28;20204;-70
2022/04/07 00:03:11;;;;;;;24.52;4.93;;;;;;;;;;5070880;28;20240;-70
2022/04/07 00:05:39;;;;;;;25.38;5.47;;;;;;;;;;5070878;28;20234;-70
2022/04/07 00:08:07;;;;;;;20.33;4.50;;;;;;;;;;5071167;28;20208;-70
2022/04/07 00:10:36;;;;;;;18.85;4.47;;;;;;;;;;5070923;28;20211;-70
2022/04/07 00:13:03;;;;;;;17.73;4.78;;;;;;;;;;5070833;28;20204;-70
2022/04/07 00:15:31;;;;;;;19.95;4.25;;;;;;;;;;5057474;28;20211;-70
2022/04/07 00:17:58;;;;;;;24.13;4.95;;;;;;;;;;5051712;28;20243;-70
2022/04/07 00:20:26;;;;;;;20.25;4.72;;;;;;;;;;5051838;28;20201;-70
2022/04/07 00:22:54;;;;;;;21.42;5.03;;;;;;;;;;5051848;28;20231;-70
2022/04/07 00:25:22;;;;;;;22.98;4.80;;;;;;;;;;5051824;28;20245;-70
2022/04/07 00:27:51;;;;;;;18.60;3.83;;;;;;;;;;5051300;28;20659;-70
2022/04/07 00:30:20;;;;;;;14.52;3.15;;;;;;;;;;5051624;28;20205;-70
2022/04/07 00:32:48;;;;;;;18.42;3.67;;;;;;;;;;5052090;28;20213;-70
2022/04/07 00:35:15;;;;;;;15.07;3.88;;;;;;;;;;5051694;28;20205;-70
2022/04/07 00:37:43;;;;;;;14.88;3.33;;;;;;;;;;5051498;28;20212;-70
2022/04/07 00:40:11;;;;;;;20.55;3.90;;;;;;;;;;5044572;28;20692;-70
2022/04/07 00:42:45;;;;;;;15.63;3.25;;;;;;;;;;5051737;28;20205;-69
2022/04/07 00:45:14;;;;;;;18.58;4.03;;;;;;;;;;5051676;28;20267;-70
2022/04/07 00:47:42;;;;;;;18.98;4.88;;;;;;;;;;5051390;28;20239;-70
2022/04/07 00:50:10;;;;;;;22.25;5.78;;;;;;;;;;5051635;28;20244;-70
2022/04/07 00:52:39;;;;;;;21.52;3.90;;;;;;;;;;5051524;28;20275;-70
2022/04/07 00:55:07;;;;;;;21.60;4.85;;;;;;;;;;5051204;28;20225;-70
2022/04/07 00:57:35;;;;;;;21.30;4.60;;;;;;;;;;5051416;28;20267;-69
2022/04/07 01:00:02;;;;;;;27.17;5.65;;;;;;;;;;5051111;28;20209;-70
2022/04/07 01:02:31;;;;;;;17.90;3.72;;;;;;;;;;5051479;28;20245;-69
2022/04/07 01:04:59;;;;;;;20.60;4.13;;;;;;;;;;5044569;28;20224;-70
2022/04/07 01:07:26;;;;;;;19.52;4.25;;;;;;;;;;5051216;28;20275;-70
2022/04/07 01:09:54;;;;;;;27.50;5.90;;;;;;;;;;5051722;28;20303;-70
2022/04/07 01:12:21;;;;;;;15.88;4.15;;;;;;;;;;5051251;28;20216;-70
2022/04/07 01:14:55;;;;;;;20.33;4.28;;;;;;;;;;5054915;28;20210;-70
2022/04/07 01:17:23;;;;;;;16.70;3.88;;;;;;;;;;5054974;28;20346;-71
2022/04/07 01:19:53;;;;;;;26.52;5.43;;;;;;;;;;5054548;28;20232;-71
2022/04/07 01:22:21;;;;;;;16.85;3.67;;;;;;;;;;5054620;28;20206;-70
2022/04/07 01:24:50;;;;;;;25.27;4.25;;;;;;;;;;5054970;28;20205;-70
2022/04/07 01:27:18;;;;;;;15.52;3.60;;;;;;;;;;5054368;28;20236;-70
2022/04/07 01:29:46;;;;;;;21.13;4.50;;;;;;;;;;5054545;28;20209;-71
2022/04/07 01:32:16;;;;;;;21.67;4.22;;;;;;;;;;5054678;28;20243;-70
2022/04/07 01:34:45;;;;;;;14.93;3.70;;;;;;;;;;5054846;28;20213;-70
2022/04/07 01:37:13;;;;;;;19.15;4.00;;;;;;;;;;5054735;28;20209;-70
2022/04/07 01:39:41;;;;;;;16.65;3.60;;;;;;;;;;5054638;28;20213;-70
2022/04/07 01:42:11;;;;;;;25.52;4.85;;;;;;;;;;5054582;28;20665;-70
2022/04/07 01:44:40;;;;;;;17.45;3.83;;;;;;;;;;5054255;28;20213;-70
2022/04/07 01:47:09;;;;;;;20.45;3.78;;;;;;;;;;5054219;28;20323;-70
2022/04/07 01:49:38;;;;;;;16.45;3.33;;;;;;;;;;5054470;28;20271;-70
2022/04/07 01:52:06;;;;;;;29.58;6.05;;;;;;;;;;5054023;28;20213;-70
2022/04/07 01:54:34;;;;;;;22.75;5.13;;;;;;;;;;5073481;28;20227;-70
2022/04/07 01:57:02;;;;;;;20.60;4.63;;;;;;;;;;5073203;28;20693;-70
2022/04/07 01:59:31;;;;;;;21.48;5.00;;;;;;;;;;5073133;28;20729;-70
2022/04/07 02:01:58;;;;;;;25.90;5.25;;;;;;;;;;5072723;28;20231;-69
2022/04/07 02:04:26;;;;;;;21.23;4.57;;;;;;;;;;5073148;28;20229;-70
2022/04/07 02:06:54;;;;;;;22.25;4.32;;;;;;;;;;5073222;28;20260;-70
2022/04/07 02:09:21;;;;;;;16.08;3.80;;;;;;;;;;5073088;28;20232;-70
2022/04/07 02:11:48;;;;;;;21.05;4.75;;;;;;;;;;5072708;28;20212;-70
2022/04/07 02:14:16;;;;;;;15.85;3.58;;;;;;;;;;5047253;28;20282;-70
2022/04/07 02:16:45;;;;;;;17.48;3.47;;;;;;;;;;5053699;28;20216;-70
2022/04/07 02:19:12;;;;;;;19.65;4.50;;;;;;;;;;5053990;28;20599;-70
2022/04/07 02:21:39;;;;;;;19.85;4.50;;;;;;;;;;5053755;28;20201;-70
2022/04/07 02:24:09;;;;;;;20.50;5.00;;;;;;;;;;5053350;28;20205;-71
2022/04/07 02:26:37;;;;;;;17.80;4.55;;;;;;;;;;5053280;28;20228;-71
2022/04/07 02:29:05;;;;;;;18.65;4.15;;;;;;;;;;5053746;28;20589;-71
2022/04/07 02:31:32;;;;;;;19.13;4.63;;;;;;;;;;5053770;28;20290;-70
2022/04/07 02:34:01;;;;;;;24.33;5.50;;;;;;;;;;5053013;28;20209;-71
2022/04/07 02:36:28;;;;;;;22.67;5.07;;;;;;;;;;5046640;28;20213;-71
2022/04/07 02:38:56;;;;;;;17.30;4.40;;;;;;;;;;5053119;28;20207;-70
2022/04/07 02:41:24;;;;;;;15.02;3.42;;;;;;;;;;5053179;28;20209;-70
2022/04/07 02:43:55;;;;;;;25.88;5.22;;;;;;;;;;5053231;28;20215;-71
2022/04/07 02:46:22;;;;;;;24.88;5.05;;;;;;;;;;5053069;28;20205;-70
2022/04/07 02:48:50;;;;;;;18.83;4.20;;;;;;;;;;5053296;28;20247;-70
2022/04/07 02:51:19;;;;;;;19.63;4.63;;;;;;;;;;5052984;28;20207;-71
2022/04/07 02:53:46;;;;;;;20.52;5.55;;;;;;;;;;5052703;28;20252;-71
2022/04/07 02:56:13;;;;;;;21.63;5.22;;;;;;;;;;5052863;28;20209;-71
2022/04/07 02:58:41;;;;;;;20.58;5.28;;;;;;;;;;5046437;28;20296;-71
2022/04/07 03:01:14;;;;;;;19.95;4.65;;;;;;;;;;5053016;28;20213;-71
2022/04/07 03:03:41;;;;;;;15.15;3.90;;;;;;;;;;5052436;28;20271;-71
2022/04/07 03:06:09;;;;;;;22.73;5.15;;;;;;;;;;5052860;28;20213;-71
2022/04/07 03:08:37;;;;;;;15.73;3.95;;;;;;;;;;5052904;28;20335;-71
2022/04/07 03:11:06;;;;;;;30.58;6.28;;;;;;;;;;5052840;28;20209;-71
2022/04/07 03:13:33;;;;;;;22.98;4.88;;;;;;;;;;5052826;28;20209;-71
2022/04/07 03:16:02;;;;;;;17.10;4.22;;;;;;;;;;5052643;28;20617;-71
2022/04/07 03:18:31;;;;;;;20.13;4.72;;;;;;;;;;5052522;28;20369;-71
2022/04/07 03:20:58;;;;;;;16.83;4.47;;;;;;;;;;5052394;28;20209;-71
2022/04/07 03:23:26;;;;;;;23.80;5.65;;;;;;;;;;5052453;28;20212;-71
2022/04/07 03:25:55;;;;;;;27.58;5.80;;;;;;;;;;5052210;28;20201;-71
2022/04/07 03:28:24;;;;;;;30.77;6.65;;;;;;;;;;5052260;28;20225;-70
2022/04/07 03:30:52;;;;;;;18.85;4.88;;;;;;;;;;5052430;28;20205;-70
2022/04/07 03:33:20;;;;;;;27.38;6.00;;;;;;;;;;5052175;28;20211;-70
2022/04/07 03:35:47;;;;;;;28.02;6.40;;;;;;;;;;5051653;28;20205;-71
2022/04/07 03:38:15;;;;;;;24.17;5.80;;;;;;;;;;5052219;28;20205;-71
2022/04/07 03:40:42;;;;;;;31.10;7.07;;;;;;;;;;5052087;28;20209;-71
2022/04/07 03:43:11;;;;;;;23.25;5.00;;;;;;;;;;5045370;28;20205;-70
2022/04/07 03:45:39;;;;;;;17.77;5.20;;;;;;;;;;5052006;28;20216;-70
2022/04/07 03:48:07;;;;;;;25.88;5.72;;;;;;;;;;5056564;28;20232;-70
2022/04/07 03:50:35;;;;;;;19.75;5.05;;;;;;;;;;5071420;28;20211;-71
2022/04/07 03:53:04;;;;;;;30.00;6.68;;;;;;;;;;5071055;28;20209;-71
2022/04/07 03:55:31;;;;;;;24.15;6.10;;;;;;;;;;5071225;28;20232;-71
2022/04/07 03:57:59;;;;;;;35.55;6.93;;;;;;;;;;5070949;28;20212;-71
2022/04/07 04:00:28;;;;;;;19.83;5.13;;;;;;;;;;5071043;28;20215;-71
2022/04/07 04:02:55;;;;;;;17.77;5.30;;;;;;;;;;5071399;28;20232;-70
2022/04/07 04:05:23;;;;;;;18.98;4.43;;;;;;;;;;5045143;28;20213;-70
2022/04/07 04:07:52;;;;;;;27.38;6.43;;;;;;;;;;5051889;28;20225;-71
2022/04/07 04:10:20;;;;;;;24.45;5.10;;;;;;;;;;5051984;28;20662;-71
2022/04/07 04:12:47;;;;;;;21.92;5.60;;;;;;;;;;5051744;28;20209;-70
2022/04/07 04:15:14;;;;;;;20.58;4.70;;;;;;;;;;5052090;28;20215;-70
2022/04/07 04:17:43;;;;;;;26.35;5.72;;;;;;;;;;5051742;28;20209;-71
2022/04/07 04:20:11;;;;;;;21.00;5.38;;;;;;;;;;5051789;28;20673;-71
2022/04/07 04:22:39;;;;;;;19.42;4.50;;;;;;;;;;5051967;28;20217;-71
2022/04/07 04:25:08;;;;;;;21.60;5.50;;;;;;;;;;5051622;28;20213;-71
2022/04/07 04:27:35;;;;;;;18.95;5.00;;;;;;;;;;5070851;28;20238;-71
2022/04/07 04:30:03;;;;;;;21.60;5.28;;;;;;;;;;5070552;28;20713;-71
2022/04/07 04:32:30;;;;;;;22.10;5.38;;;;;;;;;;5070694;28;20258;-71
2022/04/07 04:34:59;;;;;;;18.02;4.82;;;;;;;;;;5070706;28;20211;-71
2022/04/07 04:37:27;;;;;;;21.05;5.60;;;;;;;;;;5071246;28;20232;-70
2022/04/07 04:39:54;;;;;;;30.07;6.90;;;;;;;;;;5070355;28;20205;-71
2022/04/07 04:42:22;;;;;;;22.65;5.75;;;;;;;;;;5070815;28;20825;-71
2022/04/07 04:44:50;;;;;;;19.90;4.85;;;;;;;;;;5070696;28;20210;-70
2022/04/07 04:47:18;;;;;;;19.37;5.17;;;;;;;;;;5072465;28;20600;-71
2022/04/07 04:49:46;;;;;;;22.23;5.60;;;;;;;;;;5074439;28;20433;-71
2022/04/07 04:52:15;;;;;;;21.13;5.33;;;;;;;;;;5074279;28;20448;-71
2022/04/07 04:54:43;;;;;;;22.10;5.70;;;;;;;;;;5074325;28;20472;-71
2022/04/07 04:57:10;;;;;;;18.67;4.13;;;;;;;;;;5074650;28;20477;-71
2022/04/07 04:59:38;;;;;;;17.00;3.97;;;;;;;;;;5074354;28;20443;-71
2022/04/07 05:02:05;;;;;;;28.23;6.43;;;;;;;;;;5074231;28;20520;-70
2022/04/07 05:04:33;;;;;;;21.63;5.20;;;;;;;;;;5060335;28;20438;-71
2022/04/07 05:07:00;;;;;;;20.43;4.40;;;;;;;;;;5054791;28;20447;-71
2022/04/07 05:09:29;;;;;;;20.07;5.30;;;;;;;;;;5074484;28;20474;-71
2022/04/07 05:11:57;;;;;;;22.93;5.40;;;;;;;;;;5074067;28;20446;-71
2022/04/07 05:14:24;;;;;;;21.10;4.93;;;;;;;;;;5073959;28;20453;-71
2022/04/07 05:16:52;;;;;;;24.07;5.17;;;;;;;;;;5074209;28;20508;-71
2022/04/07 05:19:20;;;;;;;20.90;4.80;;;;;;;;;;5074153;28;20561;-71
2022/04/07 05:21:50;;;;;;;31.77;6.20;;;;;;;;;;5073556;28;20446;-71
2022/04/07 05:24:18;;;;;;;17.00;4.83;;;;;;;;;;5073807;28;20511;-71
2022/04/07 05:26:47;;;;;;;27.13;6.10;;;;;;;;;;5073931;28;20478;-71
2022/04/07 05:29:14;;;;;;;18.20;4.43;;;;;;;;;;5073895;28;20492;-71
2022/04/07 05:31:41;;;;;;;16.60;4.20;;;;;;;;;;5054363;28;20440;-71
2022/04/07 05:34:09;;;;;;;21.43;5.33;;;;;;;;;;5054520;28;20448;-71
2022/04/07 05:36:37;;;;;;;16.80;4.50;;;;;;;;;;5054547;28;20937;-71
2022/04/07 05:39:05;;;;;;;18.53;4.40;;;;;;;;;;5054448;28;20465;-71
2022/04/07 05:41:33;;;;;;;22.60;5.83;;;;;;;;;;5054455;28;20538;-71
2022/04/07 05:44:01;;;;;;;17.50;4.07;;;;;;;;;;5054160;28;20948;-71
2022/04/07 05:46:29;;;;;;;27.23;6.00;;;;;;;;;;5054368;28;20436;-71
2022/04/07 05:48:56;;;;;;;16.27;4.03;;;;;;;;;;5054599;28;20494;-71
2022/04/07 05:51:25;;;;;;;16.27;4.37;;;;;;;;;;5047932;28;20436;-71
2022/04/07 05:53:53;;;;;;;23.50;5.17;;;;;;;;;;5054210;28;20482;-71
2022/04/07 05:56:20;;;;;;;23.03;4.67;;;;;;;;;;5054234;28;20447;-71
2022/04/07 05:58:48;;;;;;;20.20;5.20;;;;;;;;;;5053399;28;20458;-71
2022/04/07 06:01:17;;;;;;;17.70;4.60;;;;;;;;;;5053939;28;20467;-71
2022/04/07 06:03:45;;;;;;;24.60;5.80;;;;;;;;;;5053993;28;20559;-72
2022/04/07 06:06:13;;;;;;;20.80;4.97;;;;;;;;;;5054174;28;20964;-71
2022/04/07 06:08:40;;;;;;;18.67;4.63;;;;;;;;;;5054015;28;21062;-72
2022/04/07 06:11:08;;;;;;;19.70;4.93;;;;;;;;;;5053760;28;20448;-71
2022/04/07 06:13:38;;;;;;;18.67;4.50;;;;;;;;;;5046905;28;20471;-71
2022/04/07 06:16:07;;;;;;;24.70;6.40;;;;;;;;;;5053586;28;20535;-71
2022/04/07 06:18:35;;;;;;;21.17;4.53;;;;;;;;;;5053754;28;20458;-71
2022/04/07 06:21:03;;;;;;;20.43;4.97;;;;;;;;;;5053890;28;20452;-71
2022/04/07 06:23:32;;;;;;;18.40;4.93;;;;;;;;;;5053658;28;20458;-71
2022/04/07 06:26:00;;;;;;;23.23;5.23;;;;;;;;;;5053388;28;20501;-72
2022/04/07 06:28:28;;;;;;;20.07;4.30;;;;;;;;;;5053860;28;20483;-70
2022/04/07 06:30:55;;;;;;;18.60;3.00;;;;;;;;;;5053732;28;20440;-72
2022/04/07 06:33:22;;;;;;;25.10;5.83;;;;;;;;;;5053430;28;20447;-73
2022/04/07 06:35:52;;;;;;;26.93;6.07;;;;;;;;;;5072738;28;20530;-72
2022/04/07 06:38:19;;;;;;;24.20;3.37;;;;;;;;;;5072387;28;20454;-70
2022/04/07 06:40:47;;;;;;;25.73;5.50;;;;;;;;;;5072426;28;20577;-71
2022/04/07 06:43:14;;;;;;;19.23;3.80;;;;;;;;;;5072802;28;20881;-71
2022/04/07 06:45:43;;;;;;;17.00;3.60;;;;;;;;;;5072530;28;20470;-71
2022/04/07 06:48:11;;;;;;;17.80;3.50;;;;;;;;;;5063790;28;20575;-70
2022/04/07 06:50:39;;;;;;;16.40;3.33;;;;;;;;;;5053243;28;20941;-71
2022/04/07 06:53:08;;;;;;;19.40;4.30;;;;;;;;;;5052882;28;20521;-70
2022/04/07 06:55:35;;;;;;;16.73;3.83;;;;;;;;;;5052942;28;20460;-71
2022/04/07 06:58:04;;;;;;;20.47;4.40;;;;;;;;;;5052687;28;20448;-73
2022/04/07 07:00:33;;;;;;;22.10;4.80;;;;;;;;;;5053203;28;20817;-71
2022/04/07 07:03:01;;;;;;;15.17;4.13;;;;;;;;;;5052731;28;21017;-70
2022/04/07 07:05:29;;;;;;;18.67;4.30;;;;;;;;;;5053002;28;20811;-73
2022/04/07 07:07:57;;;;;;;21.03;5.27;;;;;;;;;;5052823;28;20527;-71
2022/04/07 07:10:28;;;;;;;19.67;4.43;;;;;;;;;;5052118;28;20877;-73
2022/04/07 07:12:55;;;;;;;15.77;3.70;;;;;;;;;;5052909;28;20878;-71
2022/04/07 07:15:23;;;;;;;21.03;4.90;;;;;;;;;;5052557;28;20460;-71
2022/04/07 07:17:51;;;;;;;35.43;7.93;;;;;;;;;;5052329;28;20470;-71
2022/04/07 07:20:19;;;;;;;15.50;3.50;;;;;;;;;;5045757;28;20540;-72
2022/04/07 07:22:47;;;;;;;15.80;3.43;;;;;;;;;;5052858;28;20494;-71
2022/04/07 07:25:14;;;;;;;18.93;3.50;;;;;;;;;;5052596;28;20449;-72
2022/04/07 07:27:44;;;;;;;15.50;3.13;;;;;;;;;;5052070;28;20948;-71
2022/04/07 07:30:14;;;;;;;17.43;4.20;;;;;;;;;;5052396;28;20448;-72
2022/04/07 07:32:43;;;;;;;20.67;4.47;;;;;;;;;;5052386;28;20888;-72
2022/04/07 07:35:11;;;;;;;19.07;4.13;;;;;;;;;;5052273;28;20451;-72
2022/04/07 07:37:48;;;;;;;15.37;3.60;;;;;;;;;;5052408;28;21039;-71
2022/04/07 07:40:15;;;;;;;21.33;3.40;;;;;;;;;;5052513;28;20455;-72
2022/04/07 07:42:44;;;;;;;16.60;3.53;;;;;;;;;;5052355;28;20467;-72
2022/04/07 07:45:11;;;;;;;18.73;3.90;;;;;;;;;;5051971;28;20444;-72
2022/04/07 07:47:39;;;;;;;16.50;3.23;;;;;;;;;;5071485;28;20470;-72
2022/04/07 07:50:07;;;;;;;20.80;3.87;;;;;;;;;;5071147;28;20861;-73
2022/04/07 07:52:35;;;;;;;15.87;3.63;;;;;;;;;;5071324;28;20442;-72
2022/04/07 07:55:03;;;;;;;21.23;4.63;;;;;;;;;;5071036;28;20868;-72
2022/04/07 07:57:31;;;;;;;21.00;4.47;;;;;;;;;;5071382;28;20487;-72
2022/04/07 08:00:00;;;;;;;28.07;5.20;;;;;;;;;;5071257;28;20838;-72
2022/04/07 08:02:27;;;;;;;24.20;4.70;;;;;;;;;;5071120;28;20483;-72
2022/04/07 08:04:55;;;;;;;18.03;3.23;;;;;;;;;;5071062;28;20922;-72
2022/04/07 08:07:23;;;;;;;19.07;3.77;;;;;;;;;;5071321;28;20455;-72
2022/04/07 08:09:51;;;;;;;24.00;4.30;;;;;;;;;;5070779;28;20504;-72
2022/04/07 08:12:20;;;;;;;13.97;2.60;;;;;;;;;;5070862;28;20451;-72
2022/04/07 08:14:48;;;;;;;16.80;3.60;;;;;;;;;;5071288;28;20948;-72
2022/04/07 08:17:17;;;;;;;19.77;3.30;;;;;;;;;;5071135;28;20802;-72
2022/04/07 08:19:44;;;;;;;18.63;3.90;;;;;;;;;;5070816;28;20943;-72
2022/04/07 08:22:12;;;;;;;20.87;3.30;;;;;;;;;;5072378;28;20817;-72
2022/04/07 08:24:39;;;;;;;16.93;3.20;;;;;;;;;;5075186;28;20478;-72
2022/04/07 08:27:07;;;;;;;20.63;3.63;;;;;;;;;;5075102;28;20446;-72
2022/04/07 08:29:35;;;;;;;17.37;3.37;;;;;;;;;;5049015;28;20483;-72
2022/04/07 08:32:03;;;;;;;26.00;4.90;;;;;;;;;;5055683;28;20448;-72
2022/04/07 08:34:32;;;;;;;18.40;3.90;;;;;;;;;;5055826;28;20828;-72
2022/04/07 08:36:59;;;;;;;16.93;3.30;;;;;;;;;;5055784;28;20451;-72
2022/04/07 08:39:27;;;;;;;16.60;3.00;;;;;;;;;;5055502;28;20982;-72
2022/04/07 08:41:54;;;;;;;23.83;5.30;;;;;;;;;;5055667;28;20440;-72
2022/04/07 08:44:24;;;;;;;18.20;3.70;;;;;;;;;;5055668;28;20452;-72
2022/04/07 08:46:56;;;;;;;20.33;3.80;;;;;;;;;;5055449;28;20497;-72
2022/04/07 08:49:23;;;;;;;36.23;5.50;;;;;;;;;;5055819;28;20479;-72
2022/04/07 08:51:53;;;;;;;25.83;4.93;;;;;;;;;;5055037;28;20829;-72
2022/04/07 08:54:20;;;;;;;15.77;3.50;;;;;;;;;;5055151;28;20479;-71
2022/04/07 08:56:48;;;;;;;17.60;3.33;;;;;;;;;;5055609;28;20863;-71
2022/04/07 08:59:15;;;;;;;23.23;4.47;;;;;;;;;;5055423;28;20480;-72
2022/04/07 09:01:43;;;;;;;25.70;4.23;;;;;;;;;;5054987;28;20949;-72
2022/04/07 09:04:13;;;;;;;18.33;3.57;;;;;;;;;;5054979;28;20485;-72
2022/04/07 09:06:41;;;;;;;19.67;3.40;;;;;;;;;;5055054;28;20451;-72
2022/04/07 09:09:16;;;;;;;18.50;3.40;;;;;;;;;;5055373;28;20566;-72
2022/04/07 09:11:44;;;;;;;26.57;4.57;;;;;;;;;;5055056;28;20444;-72
2022/04/07 09:14:12;;;;;;;20.37;3.37;;;;;;;;;;5055130;28;20447;-72
2022/04/07 09:16:40;;;;;;;18.37;3.50;;;;;;;;;;5054802;28;20444;-70
2022/04/07 09:19:08;;;;;;;27.73;3.80;;;;;;;;;;5054780;28;20447;-72
2022/04/07 09:21:36;;;;;;;19.23;3.40;;;;;;;;;;5054796;28;20535;-71
2022/04/07 09:24:07;;;;;;;18.83;4.10;;;;;;;;;;5065407;28;20450;-71
2022/04/07 09:26:39;;;;;;;30.83;4.70;;;;;;;;;;5074021;28;20443;-72
2022/04/07 09:29:09;;;;;;;24.47;4.30;;;;;;;;;;5073902;28;20503;-71
2022/04/07 09:31:40;;;;;;;21.47;3.77;;;;;;;;;;5073629;28;20442;-71
2022/04/07 09:34:08;;;;;;;23.83;4.50;;;;;;;;;;5072897;28;20539;-71
2022/04/07 09:36:37;;;;;;;27.63;5.87;;;;;;;;;;5073886;28;20524;-71
2022/04/07 09:39:05;;;;;;;26.80;5.80;;;;;;;;;;5072901;28;20454;-71
2022/04/07 09:41:33;;;;;;;24.93;4.10;;;;;;;;;;5054608;28;20448;-71
2022/04/07 09:44:03;;;;;;;18.27;3.60;;;;;;;;;;5053974;28;20789;-70
2022/04/07 09:46:34;;;;;;;22.47;4.03;;;;;;;;;;5073419;28;20453;-71
2022/04/07 09:49:05;;;;;;;15.03;2.97;;;;;;;;;;5073339;28;20493;-72
2022/04/07 09:51:40;;;;;;;21.30;3.97;;;;;;;;;;5073503;28;20453;-72
2022/04/07 09:54:10;;;;;;;26.73;7.00;;;;;;;;;;5073314;28;20473;-71
2022/04/07 09:56:38;;;;;;;26.73;5.67;;;;;;;;;;5073429;28;20503;-70
2022/04/07 09:59:07;;;;;;;27.83;5.87;;;;;;;;;;5073262;28;20977;-70
2022/04/07 10:01:38;;;;;;;29.53;7.90;;;;;;;;;;5070360;28;20481;-70
2022/04/07 10:04:06;;;;;;;22.17;3.37;;;;;;;;;;5053990;28;20888;-71
2022/04/07 10:06:33;;;;;;;19.17;3.20;;;;;;;;;;5053988;28;20963;-71
2022/04/07 10:09:02;;;;;;;20.63;3.17;;;;;;;;;;5053880;28;20848;-71
2022/04/07 10:11:31;;;;;;;36.77;9.50;;;;;;;;;;5053876;28;20514;-70
2022/04/07 10:13:59;;;;;;;58.97;15.40;;;;;;;;;;5053523;28;20873;-71
2022/04/07 10:16:28;;;;;;;28.03;5.53;;;;;;;;;;5072885;28;20989;-71
2022/04/07 10:18:57;;;;;;;21.80;3.27;;;;;;;;;;5073159;28;20817;-71
2022/04/07 10:21:32;;;;;;;15.77;2.50;;;;;;;;;;5072704;28;20457;-70
2022/04/07 10:24:06;;;;;;;21.30;3.50;;;;;;;;;;5072558;28;20462;-71
2022/04/07 10:26:34;;;;;;;24.08;3.63;;;;;;;;;;5072954;28;20437;-70
2022/04/07 10:29:01;;;;;;;15.32;2.60;;;;;;;;;;5072793;28;20246;-70
2022/04/07 10:31:32;;;;;;;21.27;3.60;;;;;;;;;;5072603;28;20210;-70
2022/04/07 10:34:07;;;;;;;23.73;3.85;;;;;;;;;;5072299;28;21031;-71
2022/04/07 10:36:38;;;;;;;25.77;5.03;;;;;;;;;;5072730;28;20226;-71
2022/04/07 10:39:12;;;;;;;21.00;3.30;;;;;;;;;;5072710;28;20886;-71
2022/04/07 10:41:48;;;;;;;20.23;3.17;;;;;;;;;;5072552;28;20455;-71
2022/04/07 10:44:16;;;;;;;19.60;3.97;;;;;;;;;;5072175;28;20267;-71
2022/04/07 10:46:45;;;;;;;32.53;5.47;;;;;;;;;;5072145;28;20441;-70
2022/04/07 10:49:13;;;;;;;22.63;4.10;;;;;;;;;;5072116;28;20494;-71
2022/04/07 10:51:45;;;;;;;22.00;3.87;;;;;;;;;;5072096;28;21000;-71
2022/04/07 10:54:14;;;;;;;21.20;3.80;;;;;;;;;;5072058;28;20475;-70
2022/04/07 10:56:48;;;;;;;19.07;5.60;;;;;;;;;;5072243;28;20932;-71
2022/04/07 10:59:20;;;;;;;15.40;3.13;;;;;;;;;;5072600;28;20450;-71
2022/04/07 11:01:53;;;;;;;20.73;3.13;;;;;;;;;;5046360;28;20468;-70
2022/04/07 11:04:35;;;;;;;15.20;3.00;;;;;;;;;;5046458;28;20451;-70
2022/04/07 11:07:13;;;;;;;20.40;4.20;;;;;;;;;;5052960;28;20952;-70
2022/04/07 11:09:49;;;;;;;22.60;3.53;;;;;;;;;;5047370;28;20501;-71
2022/04/07 11:12:19;;;;;;;20.03;3.57;;;;;;;;;;5052804;28;20559;-70
2022/04/07 11:14:47;;;;;;;25.77;4.77;;;;;;;;;;5052591;28;20511;-70
2022/04/07 11:17:23;;;;;;;17.03;3.67;;;;;;;;;;5052594;28;20923;-70
2022/04/07 11:19:56;;;;;;;29.65;5.25;;;;;;;;;;5053458;28;20510;-70
2022/04/07 11:22:43;;;;;;;25.10;4.80;;;;;;;;;;5047017;28;20211;-70
2022/04/07 11:25:11;;;;;;;22.43;5.23;;;;;;;;;;5052331;28;20450;-70
2022/04/07 11:27:42;;;;;;;15.67;3.17;;;;;;;;;;5052577;28;20478;-70
2022/04/07 11:30:10;;;;;;;24.10;4.10;;;;;;;;;;5052452;28;20541;-70
2022/04/07 11:32:41;;;;;;;16.77;3.40;;;;;;;;;;5052490;28;20448;-70
2022/04/07 11:35:14;;;;;;;30.87;4.87;;;;;;;;;;5046240;28;20455;-70
2022/04/07 11:37:42;;;;;;;25.27;5.00;;;;;;;;;;5071340;28;20980;-70
2022/04/07 11:40:10;;;;;;;28.13;4.80;;;;;;;;;;5071495;28;20935;-70
2022/04/07 11:42:38;;;;;;;17.10;3.33;;;;;;;;;;5071505;28;20491;-70
2022/04/07 11:45:09;;;;;;;26.30;5.30;;;;;;;;;;5071180;28;20937;-70
2022/04/07 11:47:37;;;;;;;19.33;3.90;;;;;;;;;;5068132;28;21009;-70
2022/04/07 11:50:08;;;;;;;26.13;4.10;;;;;;;;;;5051801;28;20482;-70
2022/04/07 11:52:36;;;;;;;18.50;3.73;;;;;;;;;;5052189;28;20513;-70
2022/04/07 11:55:05;;;;;;;24.67;5.07;;;;;;;;;;5052545;28;20496;-70
2022/04/07 11:57:33;;;;;;;28.03;4.93;;;;;;;;;;5051741;28;20478;-70
2022/04/07 12:00:01;;;;;;;18.97;4.53;;;;;;;;;;5051950;28;20442;-70
2022/04/07 12:02:30;;;;;;;21.90;4.27;;;;;;;;;;5045154;28;20574;-71
2022/04/07 12:04:58;;;;;;;18.80;4.80;;;;;;;;;;5052048;28;20454;-72
2022/04/07 12:07:28;;;;;;;29.63;6.40;;;;;;;;;;5051961;28;20446;-71
2022/04/07 12:09:57;;;;;;;25.10;5.47;;;;;;;;;;5051519;28;20509;-72
2022/04/07 12:12:25;;;;;;;18.33;4.53;;;;;;;;;;5052123;28;20442;-72
2022/04/07 12:14:53;;;;;;;21.73;4.23;;;;;;;;;;5054516;28;20496;-71
2022/04/07 12:17:22;;;;;;;24.03;5.00;;;;;;;;;;5070974;28;20527;-71
2022/04/07 12:19:50;;;;;;;26.33;6.70;;;;;;;;;;5070859;28;20459;-70
2022/04/07 12:22:20;;;;;;;21.53;6.23;;;;;;;;;;5070850;28;20825;-70
2022/04/07 12:25:01;;;;;;;27.03;6.17;;;;;;;;;;5071337;28;20443;-70
2022/04/07 12:27:28;;;;;;;23.80;4.57;;;;;;;;;;5071320;28;20441;-69
2022/04/07 12:29:56;;;;;;;32.57;6.50;;;;;;;;;;5070803;28;20848;-70
2022/04/07 12:32:24;;;;;;;27.93;6.90;;;;;;;;;;5044738;28;20454;-70
2022/04/07 12:34:56;;;;;;;25.60;5.40;;;;;;;;;;5051683;28;20530;-72
2022/04/07 12:37:30;;;;;;;27.50;5.57;;;;;;;;;;5051861;28;20516;-72
2022/04/07 12:39:58;;;;;;;24.07;5.10;;;;;;;;;;5051558;28;20845;-72
2022/04/07 12:42:27;;;;;;;16.00;4.40;;;;;;;;;;5051738;28;20544;-72
2022/04/07 12:45:05;;;;;;;22.70;5.13;;;;;;;;;;5051501;28;20444;-72
2022/04/07 12:47:32;;;;;;;27.70;5.93;;;;;;;;;;5052033;28;20825;-71
2022/04/07 12:50:01;;;;;;;27.27;6.53;;;;;;;;;;5051416;28;20490;-71
2022/04/07 12:52:35;;;;;;;22.93;5.30;;;;;;;;;;5051431;28;20861;-72
2022/04/07 12:55:04;;;;;;;29.17;6.20;;;;;;;;;;5051326;28;20472;-71
2022/04/07 12:57:33;;;;;;;20.90;4.90;;;;;;;;;;5051413;28;20451;-71
2022/04/07 13:00:06;;;;;;;21.23;4.60;;;;;;;;;;5051087;28;20452;-72
2022/04/07 13:02:43;;;;;;;19.97;5.17;;;;;;;;;;5051399;28;20975;-72
2022/04/07 13:05:11;;;;;;;23.93;5.50;;;;;;;;;;5051410;28;20455;-72
2022/04/07 13:07:39;;;;;;;26.70;5.27;;;;;;;;;;5051802;28;20969;-72
2022/04/07 13:10:08;;;;;;;28.33;7.10;;;;;;;;;;5054897;28;20870;-72
2022/04/07 13:12:38;;;;;;;26.57;6.70;;;;;;;;;;5048198;28;20822;-72
2022/04/07 13:15:06;;;;;;;22.93;6.10;;;;;;;;;;5055173;28;20446;-72
2022/04/07 13:17:34;;;;;;;21.67;6.60;;;;;;;;;;5059684;28;20447;-71
2022/04/07 13:20:01;;;;;;;21.30;6.07;;;;;;;;;;5073879;28;20510;-72
2022/04/07 13:22:31;;;;;;;24.13;5.97;;;;;;;;;;5074063;28;20499;-72
2022/04/07 13:24:59;;;;;;;28.93;5.90;;;;;;;;;;5073779;28;20491;-72
2022/04/07 13:27:26;;;;;;;29.80;7.70;;;;;;;;;;5074041;28;20484;-71
2022/04/07 13:29:55;;;;;;;29.30;7.80;;;;;;;;;;5073440;28;20499;-72
2022/04/07 13:32:24;;;;;;;19.50;5.73;;;;;;;;;;5073789;28;20722;-72
2022/04/07 13:34:51;;;;;;;24.53;6.53;;;;;;;;;;5074056;28;20439;-71
2022/04/07 13:37:19;;;;;;;25.80;7.10;;;;;;;;;;5073822;28;20886;-71
2022/04/07 13:39:47;;;;;;;48.42;10.82;;;;;;;;;;5073888;28;20949;-72
2022/04/07 13:42:14;;;;;;;27.77;7.75;;;;;;;;;;5073785;28;20681;-71
2022/04/07 13:44:42;;;;;;;20.50;7.37;;;;;;;;;;5074306;28;20218;-71
2022/04/07 13:47:11;;;;;;;25.15;6.65;;;;;;;;;;5073529;28;20446;-71
2022/04/07 13:49:38;;;;;;;20.27;6.50;;;;;;;;;;5073437;28;20205;-71
2022/04/07 13:52:06;;;;;;;23.95;8.93;;;;;;;;;;5073242;28;20888;-71
2022/04/07 13:54:36;;;;;;;40.40;8.80;;;;;;;;;;5073397;28;20228;-71
2022/04/07 13:57:04;;;;;;;36.07;9.70;;;;;;;;;;5047950;28;20482;-71
2022/04/07 13:59:33;;;;;;;26.37;7.20;;;;;;;;;;5054115;28;20447;-71
2022/04/07 14:02:00;;;;;;;28.03;9.27;;;;;;;;;;5053828;28;20571;-71
2022/04/07 14:04:29;;;;;;;30.83;8.90;;;;;;;;;;5053997;28;20809;-71
2022/04/07 14:07:00;;;;;;;24.00;8.00;;;;;;;;;;5053984;28;20455;-71
2022/04/07 14:09:28;;;;;;;26.53;8.30;;;;;;;;;;5054265;28;20481;-71
2022/04/07 14:11:57;;;;;;;33.57;10.83;;;;;;;;;;5053742;28;20481;-71
2022/04/07 14:14:25;;;;;;;23.87;8.60;;;;;;;;;;5053981;28;20461;-73
2022/04/07 14:16:53;;;;;;;25.63;9.43;;;;;;;;;;5053729;28;20459;-71
2022/04/07 14:19:20;;;;;;;31.10;10.37;;;;;;;;;;5053045;28;20450;-71
2022/04/07 14:21:49;;;;;;;25.73;9.13;;;;;;;;;;5046573;28;20455;-71
2022/04/07 14:24:17;;;;;;;26.67;10.00;;;;;;;;;;5053839;28;20214;-70
2022/04/07 14:26:44;;;;;;;27.47;10.30;;;;;;;;;;5053589;28;20458;-71
2022/04/07 14:29:12;;;;;;;40.33;11.82;;;;;;;;;;5053686;28;20440;-71
2022/04/07 14:31:40;;;;;;;33.13;14.67;;;;;;;;;;5053352;28;20235;-70
2022/04/07 14:34:07;;;;;;;31.38;10.68;;;;;;;;;;5053519;28;20446;-70
2022/04/07 14:36:35;;;;;;;34.03;11.52;;;;;;;;;;5053649;28;20593;-71